Time;durP1;ratioP1;P1;durP2;ratioP2;P2;SDS_P1;SDS_P2;PMS_P1;PMS_P2;Temp;Humidity;BMP_temperature;BMP_pressure;BME280_temperature;BME280_humidity;BME280_pressure;Samples;Min_cycle;Max_cycle;Signal;HPM_P1;HPM_P2
2022/06/29 00:02:13;;;;;;;14.02;12.57;;;17.10;99.90;;;;;;4963962;28;20023;-73
2022/06/29 00:04:38;;;;;;;15.48;13.73;;;17.20;99.90;;;;;;4964290;28;20034;-73
2022/06/29 00:07:04;;;;;;;14.77;13.23;;;17.10;99.90;;;;;;4957485;29;20055;-73
2022/06/29 00:09:29;;;;;;;17.90;13.02;;;17.10;99.90;;;;;;4957369;28;20039;-73
2022/06/29 00:11:55;;;;;;;15.02;13.05;;;17.10;99.90;;;;;;4957052;28;20081;-73
2022/06/29 00:14:20;;;;;;;16.50;14.10;;;17.10;99.90;;;;;;4965784;28;20488;-73
2022/06/29 00:16:46;;;;;;;15.45;13.95;;;17.10;99.90;;;;;;4962756;28;20453;-72
2022/06/29 00:19:11;;;;;;;15.90;13.93;;;17.10;99.90;;;;;;4956979;28;20031;-73
2022/06/29 00:21:37;;;;;;;17.27;13.63;;;17.10;99.90;;;;;;4957043;29;20043;-73
2022/06/29 00:24:03;;;;;;;15.80;13.85;;;17.10;99.90;;;;;;4967298;28;20030;-73
2022/06/29 00:26:28;;;;;;;17.40;13.95;;;17.10;99.90;;;;;;4963264;28;20149;-72
2022/06/29 00:28:54;;;;;;;15.50;13.90;;;17.10;99.90;;;;;;4976186;28;20050;-73
2022/06/29 00:31:20;;;;;;;16.10;14.40;;;17.10;99.90;;;;;;4941138;29;20388;-73
2022/06/29 00:33:45;;;;;;;14.85;12.65;;;17.10;99.90;;;;;;4957110;29;20046;-73
2022/06/29 00:36:11;;;;;;;16.67;14.50;;;17.10;99.90;;;;;;4956590;29;20047;-73
2022/06/29 00:38:37;;;;;;;16.40;14.70;;;17.10;99.90;;;;;;4948452;28;20464;-73
2022/06/29 00:41:02;;;;;;;17.20;14.43;;;17.10;99.90;;;;;;4961091;28;20034;-73
2022/06/29 00:43:28;;;;;;;15.82;13.80;;;17.20;99.90;;;;;;4969604;28;20035;-73
2022/06/29 00:45:53;;;;;;;14.85;12.50;;;17.20;99.90;;;;;;4956729;29;20105;-73
2022/06/29 00:48:19;;;;;;;15.25;13.65;;;17.20;99.90;;;;;;4960676;28;20050;-73
2022/06/29 00:50:47;;;;;;;15.43;13.75;;;17.20;99.90;;;;;;4966103;28;20047;-73
2022/06/29 00:53:16;;;;;;;15.13;12.73;;;17.20;99.90;;;;;;4956832;28;20027;-73
2022/06/29 00:55:44;;;;;;;15.98;13.13;;;17.20;99.90;;;;;;4956215;29;20098;-73
2022/06/29 00:58:10;;;;;;;15.88;12.75;;;17.20;99.90;;;;;;4956211;29;20034;-74
2022/06/29 01:00:36;;;;;;;14.75;12.65;;;17.30;99.90;;;;;;4956731;28;20055;-73
2022/06/29 01:03:03;;;;;;;13.90;12.40;;;17.30;99.90;;;;;;4956475;28;20050;-73
2022/06/29 01:05:30;;;;;;;14.27;12.20;;;17.30;99.90;;;;;;4961678;28;20027;-73
2022/06/29 01:07:56;;;;;;;13.50;12.07;;;17.30;99.90;;;;;;4964429;28;20139;-73
2022/06/29 01:10:23;;;;;;;13.50;12.10;;;17.30;99.90;;;;;;4959603;28;20038;-73
2022/06/29 01:12:49;;;;;;;16.45;13.02;;;17.30;99.90;;;;;;4956270;28;20369;-73
2022/06/29 01:15:15;;;;;;;13.80;12.05;;;17.30;99.90;;;;;;4971571;28;20117;-73
2022/06/29 01:17:40;;;;;;;15.50;12.55;;;17.30;99.90;;;;;;4967712;28;20445;-73
2022/06/29 01:20:08;;;;;;;12.85;11.48;;;17.30;99.90;;;;;;4956362;29;20015;-73
2022/06/29 01:22:34;;;;;;;12.57;10.98;;;17.30;99.90;;;;;;4935494;28;20082;-73
2022/06/29 01:25:00;;;;;;;13.55;10.73;;;17.30;99.90;;;;;;4956089;28;20436;-73
2022/06/29 01:27:25;;;;;;;14.52;11.13;;;17.40;99.90;;;;;;4956098;28;20408;-73
2022/06/29 01:29:51;;;;;;;11.68;9.90;;;17.40;99.90;;;;;;4956042;28;20469;-73
2022/06/29 01:32:17;;;;;;;14.35;9.32;;;17.30;99.90;;;;;;4956067;28;20031;-73
2022/06/29 01:34:43;;;;;;;11.88;9.70;;;17.30;99.90;;;;;;4960377;28;20026;-73
2022/06/29 01:37:09;;;;;;;13.85;9.98;;;17.30;99.90;;;;;;4965128;28;20493;-73
2022/06/29 01:39:36;;;;;;;15.35;9.40;;;17.30;99.90;;;;;;4971457;28;20031;-73
2022/06/29 01:42:02;;;;;;;10.65;8.65;;;17.30;99.90;;;;;;4956329;28;20098;-73
2022/06/29 01:44:28;;;;;;;12.52;9.15;;;17.30;99.90;;;;;;4955560;28;20042;-73
2022/06/29 01:46:54;;;;;;;13.23;7.93;;;17.30;99.90;;;;;;4955893;28;20106;-73
2022/06/29 01:49:19;;;;;;;12.45;8.70;;;17.30;99.90;;;;;;4967845;28;20027;-73
2022/06/29 01:51:45;;;;;;;8.98;7.45;;;17.30;99.90;;;;;;4956761;28;20039;-73
2022/06/29 01:54:11;;;;;;;10.05;7.53;;;17.30;99.90;;;;;;4955860;29;20031;-73
2022/06/29 01:56:36;;;;;;;7.72;6.70;;;17.30;99.90;;;;;;4971765;28;20030;-73
2022/06/29 01:59:03;;;;;;;12.25;8.20;;;17.30;99.90;;;;;;4975138;28;20023;-73
2022/06/29 02:01:28;;;;;;;9.52;7.25;;;17.20;99.90;;;;;;4960463;28;20055;-73
2022/06/29 02:03:54;;;;;;;12.23;7.90;;;17.20;99.90;;;;;;4955533;28;20055;-73
2022/06/29 02:06:20;;;;;;;9.52;6.18;;;17.20;99.90;;;;;;4967734;28;20050;-73
2022/06/29 02:08:46;;;;;;;9.32;7.13;;;17.20;99.90;;;;;;4939400;29;20484;-73
2022/06/29 02:11:12;;;;;;;10.85;8.05;;;17.20;99.90;;;;;;4955778;29;20059;-73
2022/06/29 02:13:37;;;;;;;11.75;7.15;;;17.20;99.90;;;;;;4955520;28;20027;-72
2022/06/29 02:16:03;;;;;;;13.95;7.47;;;17.10;99.90;;;;;;4956973;28;20034;-73
2022/06/29 02:18:29;;;;;;;12.60;8.18;;;17.10;99.90;;;;;;4957445;28;20081;-72
2022/06/29 02:20:54;;;;;;;13.02;8.50;;;17.10;99.90;;;;;;4960023;28;20054;-72
2022/06/29 02:23:20;;;;;;;12.20;8.63;;;17.10;99.90;;;;;;4966371;28;20469;-73
2022/06/29 02:25:47;;;;;;;14.50;7.93;;;17.10;99.90;;;;;;4954954;28;20035;-73
2022/06/29 02:28:12;;;;;;;10.77;7.80;;;17.10;99.90;;;;;;4955070;29;20019;-73
2022/06/29 02:36:07;;;;;;;13.07;7.40;;;17.10;99.90;;;;;;4954884;29;20062;-73
2022/06/29 02:38:33;;;;;;;9.68;6.07;;;17.10;99.90;;;;;;4950581;29;20101;-73
2022/06/29 02:40:59;;;;;;;14.38;8.32;;;17.10;99.90;;;;;;4954446;28;20063;-73
2022/06/29 02:43:25;;;;;;;9.07;7.35;;;17.20;99.90;;;;;;4953180;29;20558;-72
2022/06/29 02:45:51;;;;;;;11.10;7.95;;;17.20;99.90;;;;;;4954605;28;20098;-73
2022/06/29 02:48:17;;;;;;;11.10;7.75;;;17.20;99.90;;;;;;4954013;29;20027;-73
2022/06/29 02:50:42;;;;;;;9.85;7.57;;;17.10;99.90;;;;;;4955644;28;20027;-73
2022/06/29 02:53:08;;;;;;;10.98;8.10;;;17.10;99.90;;;;;;4966637;28;20086;-72
2022/06/29 02:55:33;;;;;;;16.25;7.63;;;17.10;99.90;;;;;;4954116;28;20027;-73
2022/06/29 02:57:59;;;;;;;12.48;7.68;;;17.10;99.90;;;;;;4936624;29;20038;-73
2022/06/29 03:00:24;;;;;;;9.90;7.72;;;17.10;99.90;;;;;;4964741;28;20027;-73
2022/06/29 03:02:50;;;;;;;11.68;7.50;;;17.00;99.90;;;;;;4956437;28;20110;-73
2022/06/29 03:05:16;;;;;;;10.50;7.90;;;17.00;99.90;;;;;;4962643;28;20436;-73
2022/06/29 03:07:41;;;;;;;11.00;7.60;;;17.00;99.90;;;;;;4972388;28;20027;-73
2022/06/29 03:10:07;;;;;;;11.75;7.97;;;16.90;99.90;;;;;;4954256;29;20027;-73
2022/06/29 03:12:33;;;;;;;12.10;8.25;;;16.90;99.90;;;;;;4954212;29;20024;-73
2022/06/29 03:14:59;;;;;;;9.25;7.70;;;16.90;99.90;;;;;;4954126;28;20027;-73
2022/06/29 03:17:24;;;;;;;13.45;8.48;;;16.90;99.90;;;;;;4954069;29;20437;-73
2022/06/29 03:19:50;;;;;;;10.05;8.43;;;16.90;99.90;;;;;;4953662;28;20073;-73
2022/06/29 03:22:15;;;;;;;12.18;8.27;;;16.90;99.90;;;;;;4953338;28;20657;-73
2022/06/29 03:24:41;;;;;;;11.95;8.68;;;16.80;99.90;;;;;;4953670;28;20034;-73
2022/06/29 03:27:06;;;;;;;11.15;8.00;;;16.90;99.90;;;;;;4953614;28;20078;-73
2022/06/29 03:29:32;;;;;;;14.77;8.48;;;16.80;99.90;;;;;;4953705;28;20032;-73
2022/06/29 03:31:58;;;;;;;11.10;8.73;;;16.80;99.90;;;;;;4970697;28;20050;-73
2022/06/29 03:34:23;;;;;;;12.05;9.27;;;16.80;99.90;;;;;;4971789;28;20142;-73
2022/06/29 03:36:49;;;;;;;16.05;9.60;;;16.80;99.90;;;;;;4971348;28;20037;-73
2022/06/29 03:39:15;;;;;;;12.13;8.98;;;16.80;99.90;;;;;;4953712;28;20795;-73
2022/06/29 03:41:40;;;;;;;14.45;10.38;;;16.80;99.90;;;;;;4953853;29;20055;-73
2022/06/29 03:44:06;;;;;;;13.95;9.45;;;16.80;99.90;;;;;;4958904;28;20080;-73
2022/06/29 03:46:31;;;;;;;14.85;10.75;;;16.80;99.90;;;;;;4962065;28;20187;-73
2022/06/29 03:48:57;;;;;;;12.15;8.85;;;16.80;99.90;;;;;;4953657;28;20372;-73
2022/06/29 03:51:23;;;;;;;10.90;8.48;;;16.80;99.90;;;;;;4944851;28;20370;-73
2022/06/29 03:53:48;;;;;;;15.38;9.98;;;16.80;99.90;;;;;;4964255;28;20031;-73
2022/06/29 03:56:14;;;;;;;13.45;9.20;;;16.80;99.90;;;;;;4964401;28;20428;-73
2022/06/29 03:58:40;;;;;;;11.55;9.27;;;16.80;99.90;;;;;;4953866;29;20024;-73
2022/06/29 04:01:06;;;;;;;11.20;9.07;;;16.80;99.90;;;;;;4971552;28;20046;-73
2022/06/29 04:03:31;;;;;;;14.63;10.10;;;16.80;99.90;;;;;;4961744;28;20106;-73
2022/06/29 04:05:57;;;;;;;12.20;9.77;;;16.80;99.90;;;;;;4953483;28;20031;-72
2022/06/29 04:08:23;;;;;;;11.30;9.60;;;16.80;99.90;;;;;;4953725;28;20043;-73
2022/06/29 04:10:48;;;;;;;16.17;10.45;;;16.80;99.90;;;;;;4967100;28;20056;-73
2022/06/29 04:13:14;;;;;;;16.60;10.73;;;16.80;99.90;;;;;;4952290;28;20011;-73
2022/06/29 04:15:40;;;;;;;13.70;10.18;;;16.80;99.90;;;;;;4956016;28;20465;-73
2022/06/29 04:18:06;;;;;;;15.52;10.90;;;16.90;99.90;;;;;;4958033;28;20050;-73
2022/06/29 04:23:16;;;;;;;16.30;10.20;;;16.90;99.90;;;;;;4951234;28;20093;-75
2022/06/29 04:25:42;;;;;;;16.70;11.18;;;16.90;99.90;;;;;;4947301;29;20279;-75
2022/06/29 04:28:07;;;;;;;12.75;10.70;;;16.90;99.90;;;;;;4947229;29;20381;-75
2022/06/29 04:30:33;;;;;;;17.45;10.45;;;17.00;99.90;;;;;;4953811;29;20102;-75
2022/06/29 04:32:59;;;;;;;12.73;8.90;;;16.90;99.90;;;;;;4953664;28;20023;-75
2022/06/29 04:35:24;;;;;;;13.38;8.88;;;17.00;99.90;;;;;;4936235;29;20045;-76
2022/06/29 04:37:50;;;;;;;12.82;8.40;;;17.10;99.90;;;;;;4952775;29;20074;-75
2022/06/29 04:40:16;;;;;;;10.90;8.45;;;17.10;99.90;;;;;;4954816;29;20023;-75
2022/06/29 04:42:41;;;;;;;14.75;9.15;;;17.20;99.90;;;;;;4953734;29;20079;-76
2022/06/29 04:46:19;;;;;;;10.30;7.47;;;17.20;99.90;;;;;;4953967;29;20023;-76
2022/06/29 04:47:53;;;;;;;11.90;8.57;;;17.30;99.90;;;;;;4953375;28;20101;-76
2022/06/29 04:50:18;;;;;;;12.02;8.35;;;17.30;99.90;;;;;;4953054;29;20831;-76
2022/06/29 04:52:44;;;;;;;11.07;8.95;;;17.30;99.90;;;;;;4952918;29;20448;-76
2022/06/29 04:55:10;;;;;;;11.35;8.07;;;17.30;99.90;;;;;;4952341;29;20551;-76
2022/06/29 04:57:36;;;;;;;13.88;9.48;;;17.40;99.90;;;;;;4952944;29;20031;-76
2022/06/29 05:00:22;;;;;;;17.38;10.32;;;17.40;99.90;;;;;;4946544;29;20038;-81
2022/06/29 05:02:48;;;;;;;12.52;8.93;;;17.40;99.90;;;;;;4933352;29;20106;-76
2022/06/29 05:05:14;;;;;;;11.57;8.75;;;17.40;99.90;;;;;;4953003;29;20094;-76
2022/06/29 05:07:39;;;;;;;11.10;8.65;;;17.50;99.90;;;;;;4953260;29;20050;-76
2022/06/29 05:10:06;;;;;;;12.93;9.32;;;17.50;99.90;;;;;;4954617;28;20575;-76
2022/06/29 05:12:31;;;;;;;11.02;8.38;;;17.50;99.90;;;;;;4951003;28;20039;-76
2022/06/29 05:14:57;;;;;;;11.00;8.68;;;17.60;99.90;;;;;;4934988;29;20078;-75
2022/06/29 05:17:22;;;;;;;9.63;8.45;;;17.70;99.90;;;;;;4949315;29;20038;-77
2022/06/29 05:19:48;;;;;;;12.10;9.38;;;17.70;99.90;;;;;;4949240;28;20027;-76
2022/06/29 05:22:14;;;;;;;12.52;9.27;;;17.70;99.90;;;;;;4947537;29;20027;-76
2022/06/29 05:24:39;;;;;;;11.05;9.43;;;17.70;99.90;;;;;;4950237;28;20167;-76
2022/06/29 05:27:05;;;;;;;16.45;9.00;;;17.80;99.90;;;;;;4950583;28;20055;-75
2022/06/29 05:29:31;;;;;;;11.48;9.07;;;17.80;99.90;;;;;;4951415;29;20043;-75
2022/06/29 05:31:56;;;;;;;14.98;9.93;;;17.80;99.90;;;;;;4951591;28;20042;-76
2022/06/29 05:34:22;;;;;;;14.18;9.57;;;17.80;99.90;;;;;;4950880;28;20039;-76
2022/06/29 05:36:47;;;;;;;10.80;9.00;;;17.90;99.90;;;;;;4950634;28;20039;-75
2022/06/29 05:39:13;;;;;;;12.75;9.93;;;17.90;99.90;;;;;;4950897;28;20361;-76
2022/06/29 05:41:39;;;;;;;15.75;9.82;;;17.90;99.90;;;;;;4951033;28;20658;-76
2022/06/29 05:44:04;;;;;;;14.40;10.85;;;17.90;99.90;;;;;;4950275;28;20039;-75
2022/06/29 05:46:31;;;;;;;11.63;9.82;;;17.90;99.90;;;;;;4950763;28;20156;-75
2022/06/29 05:48:56;;;;;;;14.57;10.65;;;18.00;99.90;;;;;;4950574;28;20046;-76
2022/06/29 05:51:25;;;;;;;16.27;11.35;;;18.00;99.90;;;;;;4948348;28;20031;-76
2022/06/29 05:53:51;;;;;;;15.15;11.52;;;18.00;99.90;;;;;;4949742;28;20035;-72
2022/06/29 05:56:17;;;;;;;14.30;11.65;;;18.10;99.90;;;;;;4955659;29;20122;-72
2022/06/29 05:58:43;;;;;;;14.85;11.52;;;18.10;99.90;;;;;;4969030;28;20099;-72
2022/06/29 06:01:09;;;;;;;15.82;11.23;;;18.20;99.90;;;;;;4951547;28;20031;-73
2022/06/29 06:03:36;;;;;;;14.20;11.25;;;18.20;99.90;;;;;;4950041;29;20495;-74
2022/06/29 06:06:02;;;;;;;13.80;11.95;;;18.30;99.90;;;;;;4937979;29;20481;-74
2022/06/29 06:08:28;;;;;;;14.00;12.30;;;18.50;99.90;;;;;;4955001;29;20376;-74
2022/06/29 06:10:53;;;;;;;18.83;12.45;;;18.50;99.90;;;;;;4937415;29;20031;-74
2022/06/29 06:13:19;;;;;;;17.42;12.45;;;18.50;99.90;;;;;;4953642;29;20031;-74
2022/06/29 06:15:46;;;;;;;15.43;10.95;;;18.70;99.90;;;;;;4937297;29;20045;-74
2022/06/29 06:18:12;;;;;;;13.95;11.95;;;18.70;99.90;;;;;;4954871;29;20067;-75
2022/06/29 06:20:37;;;;;;;13.30;11.63;;;18.70;99.90;;;;;;4960576;28;20144;-75
2022/06/29 06:23:03;;;;;;;12.93;11.55;;;18.80;99.90;;;;;;4953164;29;20461;-75
2022/06/29 06:25:29;;;;;;;15.10;11.45;;;18.80;99.90;;;;;;4954832;29;20027;-75
2022/06/29 06:27:55;;;;;;;13.30;11.75;;;18.90;99.90;;;;;;4958469;28;20042;-75
2022/06/29 06:30:20;;;;;;;16.30;12.27;;;18.90;99.90;;;;;;4964024;28;20352;-75
2022/06/29 06:32:46;;;;;;;13.63;10.52;;;19.00;99.90;;;;;;4956132;28;20103;-75
2022/06/29 06:35:12;;;;;;;15.88;11.50;;;19.10;99.90;;;;;;4945076;28;20039;-75
2022/06/29 06:37:37;;;;;;;12.20;10.60;;;19.00;99.90;;;;;;4942696;28;20031;-75
2022/06/29 06:42:47;;;;;;;12.27;10.20;;;19.00;99.90;;;;;;4967111;28;20086;-76
2022/06/29 06:45:13;;;;;;;12.23;10.32;;;19.20;99.90;;;;;;4956404;28;20035;-76
2022/06/29 06:47:38;;;;;;;11.18;9.98;;;19.20;99.90;;;;;;4963104;28;20169;-76
2022/06/29 06:50:04;;;;;;;13.68;11.77;;;19.20;99.90;;;;;;4960169;28;20082;-76
2022/06/29 06:52:30;;;;;;;14.40;10.75;;;19.20;99.90;;;;;;4944412;28;20436;-75
2022/06/29 06:54:55;;;;;;;13.48;10.38;;;19.20;99.90;;;;;;4961530;28;20114;-75
2022/06/29 06:57:21;;;;;;;16.40;11.73;;;19.30;99.90;;;;;;4959149;28;20031;-75
2022/06/29 06:59:47;;;;;;;16.10;11.40;;;19.40;99.90;;;;;;4958380;28;20019;-75
2022/06/29 07:02:12;;;;;;;15.77;12.60;;;19.40;99.90;;;;;;4945362;28;20031;-76
2022/06/29 07:04:38;;;;;;;14.57;11.23;;;19.50;99.90;;;;;;4948450;28;20901;-78
2022/06/29 07:07:03;;;;;;;13.43;11.07;;;19.60;99.90;;;;;;4945957;28;20432;-78
2022/06/29 07:09:29;;;;;;;13.35;9.45;;;19.70;99.90;;;;;;4946169;28;20027;-78
2022/06/29 07:11:54;;;;;;;11.77;10.57;;;19.80;99.90;;;;;;4945874;28;20042;-78
2022/06/29 07:14:20;;;;;;;13.85;10.48;;;20.00;99.90;;;;;;4947475;28;20110;-78
2022/06/29 07:16:45;;;;;;;14.43;10.70;;;20.10;99.90;;;;;;4943632;28;20043;-78
2022/06/29 07:19:15;;;;;;;11.95;10.27;;;20.20;99.90;;;;;;4946408;28;20038;-78
2022/06/29 07:21:46;;;;;;;13.07;10.20;;;20.30;99.90;;;;;;4946021;28;20042;-78
2022/06/29 07:24:12;;;;;;;12.75;10.95;;;20.50;99.90;;;;;;4949390;28;20038;-78
2022/06/29 07:26:56;;;;;;;12.95;9.60;;;20.60;99.90;;;;;;4948449;28;20067;-78
2022/06/29 07:29:25;;;;;;;12.45;9.82;;;20.60;99.90;;;;;;4960481;28;20482;-76
2022/06/29 07:32:30;;;;;;;10.68;8.82;;;20.60;99.90;;;;;;4939622;28;20385;-78
2022/06/29 07:38:10;;;;;;;10.52;8.63;;;20.70;99.90;;;;;;4950787;28;20456;-79
2022/06/29 07:40:38;;;;;;;10.88;8.63;;;20.70;99.90;;;;;;4939906;28;20038;-76
2022/06/29 07:43:04;;;;;;;11.65;8.45;;;20.70;99.90;;;;;;4961361;28;20029;-75
2022/06/29 07:45:29;;;;;;;10.50;8.18;;;20.80;99.90;;;;;;4963344;28;20026;-75
2022/06/29 07:47:55;;;;;;;10.48;7.80;;;20.70;99.90;;;;;;4959464;28;20058;-75
2022/06/29 07:50:21;;;;;;;10.35;7.93;;;20.70;99.90;;;;;;4966121;28;20035;-75
2022/06/29 07:52:46;;;;;;;11.57;7.88;;;20.60;99.90;;;;;;4957285;28;20031;-68
2022/06/29 07:55:12;;;;;;;10.30;7.57;;;20.60;99.90;;;;;;4967322;28;20029;-68
2022/06/29 07:57:38;;;;;;;8.73;7.60;;;20.50;99.90;;;;;;4965839;28;20054;-67
2022/06/29 08:00:05;;;;;;;11.30;7.50;;;20.40;99.90;;;;;;4961206;28;20107;-67
2022/06/29 08:02:31;;;;;;;9.88;7.40;;;20.30;99.90;;;;;;4966768;28;20034;-75
2022/06/29 08:04:58;;;;;;;9.20;7.38;;;20.40;99.90;;;;;;4968169;28;20028;-75
2022/06/29 08:07:24;;;;;;;11.50;8.30;;;20.40;99.90;;;;;;4961023;28;20023;-76
2022/06/29 08:09:49;;;;;;;10.05;7.85;;;20.40;99.90;;;;;;4970433;28;20053;-75
2022/06/29 08:12:16;;;;;;;10.52;7.75;;;20.50;99.90;;;;;;4946047;28;20067;-75
2022/06/29 08:14:41;;;;;;;9.45;7.43;;;20.40;99.90;;;;;;4963862;28;20023;-75
2022/06/29 08:17:07;;;;;;;9.50;8.02;;;20.50;99.90;;;;;;4958790;28;20039;-75
2022/06/29 08:19:32;;;;;;;9.45;8.00;;;20.60;99.90;;;;;;4969250;28;20018;-75
2022/06/29 08:21:58;;;;;;;13.98;7.75;;;20.70;99.90;;;;;;4963258;28;20027;-75
2022/06/29 08:24:23;;;;;;;8.32;7.03;;;20.80;99.90;;;;;;4958436;28;20319;-73
2022/06/29 08:26:49;;;;;;;14.88;7.32;;;21.00;99.90;;;;;;4963330;28;20133;-74
2022/06/29 08:29:14;;;;;;;6.95;6.03;;;21.10;99.90;;;;;;4966855;28;20030;-75
2022/06/29 08:31:40;;;;;;;8.13;5.93;;;21.20;99.90;;;;;;4972192;28;20027;-75
2022/06/29 08:34:10;;;;;;;10.32;5.72;;;21.30;99.90;;;;;;4967734;28;20023;-75
2022/06/29 08:36:35;;;;;;;7.47;5.47;;;21.40;99.90;;;;;;4971179;28;20041;-75
2022/06/29 08:39:01;;;;;;;10.77;6.40;;;21.50;99.90;;;;;;4967330;28;20019;-75
2022/06/29 08:41:29;;;;;;;11.82;6.00;;;21.60;99.90;;;;;;4958911;28;20074;-75
2022/06/29 08:43:58;;;;;;;8.00;5.45;;;21.70;99.90;;;;;;4961265;28;20039;-75
2022/06/29 08:46:23;;;;;;;9.77;5.60;;;21.80;99.90;;;;;;4964162;28;20350;-75
2022/06/29 08:48:49;;;;;;;8.43;5.75;;;21.90;99.90;;;;;;4957750;28;20055;-75
2022/06/29 08:51:18;;;;;;;12.05;6.70;;;22.00;99.90;;;;;;4966079;28;20027;-75
2022/06/29 08:53:45;;;;;;;8.13;5.97;;;22.00;99.90;;;;;;4965387;28;20058;-75
2022/06/29 08:56:12;;;;;;;11.38;6.25;;;22.00;99.90;;;;;;4964625;28;20055;-76
2022/06/29 08:58:40;;;;;;;7.80;5.93;;;22.00;99.90;;;;;;4959644;28;20042;-75
2022/06/29 09:01:06;;;;;;;7.63;5.53;;;22.10;99.90;;;;;;4961188;28;20023;-75
2022/06/29 09:03:32;;;;;;;6.80;5.72;;;22.20;99.90;;;;;;4946750;28;20491;-75
2022/06/29 09:05:58;;;;;;;7.97;5.20;;;22.20;99.90;;;;;;4950171;29;20051;-76
2022/06/29 09:08:24;;;;;;;8.27;5.10;;;22.10;99.90;;;;;;4953824;29;20452;-76
2022/06/29 09:10:50;;;;;;;8.82;4.60;;;22.10;99.90;;;;;;4972098;28;20083;-77
2022/06/29 09:13:23;;;;;;;7.30;5.55;;;22.10;99.90;;;;;;4975973;28;20059;-77
2022/06/29 09:15:57;;;;;;;6.05;5.10;;;22.10;99.90;;;;;;4976133;28;20085;-77
2022/06/29 09:18:28;;;;;;;10.43;6.38;;;22.10;99.90;;;;;;4958247;28;20329;-77
2022/06/29 09:20:59;;;;;;;8.23;5.70;;;22.10;99.90;;;;;;4969910;28;20034;-77
2022/06/29 09:23:26;;;;;;;8.45;6.03;;;22.10;99.90;;;;;;4956512;29;20031;-77
2022/06/29 09:25:52;;;;;;;8.77;5.68;;;21.90;99.90;;;;;;4956733;29;20405;-77
2022/06/29 09:28:29;;;;;;;8.05;5.72;;;21.80;99.90;;;;;;4956391;29;20425;-77
2022/06/29 09:30:56;;;;;;;5.95;4.95;;;21.80;99.90;;;;;;4955000;29;20015;-78
2022/06/29 09:33:32;;;;;;;6.60;5.65;;;21.80;99.90;;;;;;4956158;28;20023;-77
2022/06/29 09:36:10;;;;;;;8.77;5.90;;;21.80;99.90;;;;;;4939328;29;20170;-77
2022/06/29 09:38:37;;;;;;;6.90;5.50;;;21.80;99.90;;;;;;4956378;29;20027;-77
2022/06/29 09:41:07;;;;;;;9.65;5.88;;;21.80;99.90;;;;;;4956292;29;20035;-77
2022/06/29 09:43:36;;;;;;;5.82;4.80;;;22.00;99.90;;;;;;4964606;28;20114;-78
2022/06/29 09:46:03;;;;;;;8.45;5.40;;;22.10;99.90;;;;;;4953356;29;20077;-78
2022/06/29 09:48:31;;;;;;;5.85;4.35;;;22.30;99.90;;;;;;4953393;29;20052;-78
2022/06/29 09:50:57;;;;;;;7.32;4.72;;;22.40;99.90;;;;;;4953129;28;20034;-78
2022/06/29 09:53:38;;;;;;;7.85;5.30;;;22.60;99.90;;;;;;4953309;29;20031;-78
2022/06/29 09:56:06;;;;;;;6.80;5.43;;;22.80;99.90;;;;;;4953699;29;20047;-78
2022/06/29 09:59:04;;;;;;;7.22;4.85;;;22.90;99.90;;;;;;4954557;28;20058;-78
2022/06/29 10:04:16;;;;;;;5.45;4.47;;;22.80;99.90;;;;;;4953434;28;20030;-78
2022/06/29 10:06:43;;;;;;;7.32;4.70;;;22.70;99.90;;;;;;4953485;29;20067;-78
2022/06/29 10:09:09;;;;;;;5.80;4.60;;;22.70;99.90;;;;;;4953587;28;20027;-78
2022/06/29 10:13:39;;;;;;;6.97;4.65;;;22.70;99.90;;;;;;4953399;28;20067;-79
2022/06/29 10:15:29;;;;;;;5.85;4.93;;;22.60;99.90;;;;;;4953208;28;20556;-78
2022/06/29 10:18:06;;;;;;;7.85;4.93;;;22.40;99.90;;;;;;4953199;28;20027;-78
2022/06/29 10:20:48;;;;;;;7.05;5.82;;;22.40;99.90;;;;;;4953068;28;20066;-78
2022/06/29 10:23:49;;;;;;;7.55;6.00;;;22.30;99.90;;;;;;4951151;28;20015;-78
2022/06/29 10:26:35;;;;;;;7.18;5.55;;;22.20;99.90;;;;;;4950033;28;20078;-77
2022/06/29 10:29:09;;;;;;;9.73;4.90;;;22.20;99.90;;;;;;4955878;28;20027;-77
2022/06/29 10:31:59;;;;;;;7.78;5.00;;;22.20;99.90;;;;;;4974215;28;20023;-77
2022/06/29 10:34:31;;;;;;;6.25;4.55;;;22.30;99.90;;;;;;4954122;29;20027;-78
2022/06/29 10:37:02;;;;;;;7.00;5.18;;;22.30;99.90;;;;;;4952152;28;20036;-70
2022/06/29 10:39:48;;;;;;;9.18;5.35;;;22.40;99.90;;;;;;4934129;28;20028;-70
2022/06/29 10:45:17;;;;;;;5.32;4.50;;;22.50;99.90;;;;;;4934818;28;20034;-79
2022/06/29 10:47:45;;;;;;;8.10;4.93;;;22.50;99.90;;;;;;4940152;28;20035;-70
2022/06/29 10:50:23;;;;;;;6.57;4.63;;;22.60;99.90;;;;;;4951851;29;20031;-70
2022/06/29 10:53:08;;;;;;;8.80;5.00;;;22.60;99.90;;;;;;4951803;28;20023;-71
2022/06/29 10:55:37;;;;;;;6.82;4.35;;;22.70;99.90;;;;;;4950998;28;20023;-71
2022/06/29 10:58:03;;;;;;;7.93;4.13;;;22.70;99.90;;;;;;4933847;29;20491;-70
2022/06/29 11:00:53;;;;;;;6.18;3.95;;;22.80;99.90;;;;;;4951803;29;20031;-70
2022/06/29 11:03:26;;;;;;;6.22;4.15;;;22.90;99.90;;;;;;4951501;28;20040;-70
2022/06/29 11:16:55;;;;;;;5.75;3.85;;;24.10;99.90;;;;;;4951577;29;19918;-71
2022/06/29 11:19:30;;;;;;;6.45;3.80;;;24.80;99.90;;;;;;4950128;28;20474;-70
2022/06/29 11:22:09;;;;;;;5.35;3.65;;;25.50;99.90;;;;;;4948535;29;20508;-71
2022/06/29 11:24:55;;;;;;;8.70;4.10;;;25.90;99.90;;;;;;4949323;28;20449;-71
2022/06/29 11:27:39;;;;;;;6.97;3.80;;;26.30;99.90;;;;;;4953985;28;20563;-71
2022/06/29 11:30:07;;;;;;;5.70;3.13;;;26.60;99.90;;;;;;4953792;28;20088;-71
2022/06/29 11:32:36;;;;;;;4.68;3.67;;;26.90;99.90;;;;;;4954769;28;20882;-71
2022/06/29 11:35:01;;;;;;;10.75;4.30;;;27.20;99.90;;;;;;4956507;28;20336;-71
2022/06/29 11:37:27;;;;;;;6.78;4.13;;;27.20;99.90;;;;;;4955307;28;20046;-71
2022/06/29 11:39:53;;;;;;;6.32;3.60;;;27.20;99.90;;;;;;4954682;28;20033;-71
2022/06/29 11:45:16;;;;;;;7.22;3.30;;;27.20;99.90;;;;;;4938588;28;20082;-69
2022/06/29 11:47:52;;;;;;;8.43;3.97;;;27.00;99.90;;;;;;4943539;29;20445;-70
2022/06/29 11:50:19;;;;;;;6.13;3.72;;;27.00;99.90;;;;;;4948015;29;20023;-69
2022/06/29 11:52:47;;;;;;;4.97;3.63;;;27.00;99.90;;;;;;4958461;28;20058;-69
2022/06/29 11:55:12;;;;;;;6.38;3.85;;;27.20;99.90;;;;;;4958459;29;20027;-69
2022/06/29 11:57:38;;;;;;;5.32;3.80;;;27.50;99.90;;;;;;4957408;28;20027;-73
2022/06/29 12:00:08;;;;;;;7.13;4.00;;;27.60;99.90;;;;;;4955342;28;20540;-68
2022/06/29 12:02:34;;;;;;;5.40;3.90;;;27.60;99.90;;;;;;4957454;28;20045;-69
2022/06/29 12:05:01;;;;;;;8.32;4.72;;;27.80;99.90;;;;;;4958177;29;20015;-68
2022/06/29 12:07:30;;;;;;;6.78;4.65;;;27.90;99.90;;;;;;4963190;28;20034;-69
2022/06/29 12:09:58;;;;;;;6.93;4.22;;;28.10;99.90;;;;;;4958078;28;20496;-69
2022/06/29 12:12:23;;;;;;;5.50;3.25;;;28.20;99.90;;;;;;4958133;29;20035;-69
2022/06/29 12:14:49;;;;;;;6.55;3.50;;;28.30;99.90;;;;;;4958405;28;20440;-69
2022/06/29 12:17:15;;;;;;;7.13;3.65;;;28.70;99.90;;;;;;4961287;28;20115;-70
2022/06/29 12:19:44;;;;;;;7.82;3.33;;;28.70;99.90;;;;;;4955463;29;20098;-71
2022/06/29 12:22:10;;;;;;;6.05;3.58;;;28.60;99.90;;;;;;4953962;28;20023;-69
2022/06/29 12:24:36;;;;;;;9.38;3.45;;;28.30;99.90;;;;;;4968254;28;20027;-69
2022/06/29 12:27:02;;;;;;;7.80;3.25;;;28.30;99.90;;;;;;4958944;28;20528;-71
2022/06/29 12:29:28;;;;;;;6.18;3.10;;;28.00;99.90;;;;;;4957941;28;20031;-70
2022/06/29 12:31:54;;;;;;;5.50;3.65;;;28.00;99.90;;;;;;4958074;28;20046;-70
2022/06/29 12:34:19;;;;;;;5.50;3.60;;;28.00;99.90;;;;;;4958655;28;20031;-70
2022/06/29 12:36:46;;;;;;;4.55;3.53;;;27.60;99.90;;;;;;4956403;28;20039;-69
2022/06/29 12:39:11;;;;;;;6.10;3.42;;;27.50;99.90;;;;;;4955933;29;20502;-70
2022/06/29 12:41:37;;;;;;;4.75;3.30;;;27.60;99.90;;;;;;4955759;28;20031;-70
2022/06/29 12:44:04;;;;;;;4.85;3.15;;;28.10;99.90;;;;;;4954466;28;20070;-70
2022/06/29 12:46:31;;;;;;;8.18;3.30;;;28.60;99.90;;;;;;4955238;29;20362;-70
2022/06/29 12:48:57;;;;;;;7.82;3.47;;;29.00;99.90;;;;;;4954585;28;20023;-70
2022/06/29 12:51:24;;;;;;;7.45;3.17;;;28.60;99.90;;;;;;4954356;28;20082;-70
2022/06/29 12:53:49;;;;;;;8.23;3.35;;;28.40;99.90;;;;;;4953531;28;20401;-70
2022/06/29 12:56:15;;;;;;;4.47;2.90;;;28.30;99.90;;;;;;4954744;29;20043;-70
2022/06/29 12:58:41;;;;;;;6.03;3.50;;;28.20;99.90;;;;;;4955125;28;20030;-70
2022/06/29 13:01:07;;;;;;;6.15;2.65;;;28.10;99.90;;;;;;4961032;28;20015;-70
2022/06/29 13:03:33;;;;;;;5.43;2.65;;;28.00;99.90;;;;;;4962959;28;20031;-70
2022/06/29 13:05:58;;;;;;;5.15;2.90;;;27.90;99.90;;;;;;4951497;29;20035;-70
2022/06/29 13:08:24;;;;;;;7.38;2.70;;;27.60;99.90;;;;;;4935238;29;20035;-70
2022/06/29 13:10:49;;;;;;;6.55;2.78;;;27.30;99.90;;;;;;4955957;28;20132;-70
2022/06/29 13:13:15;;;;;;;7.00;2.85;;;27.10;99.90;;;;;;4955528;28;20035;-70
2022/06/29 13:15:40;;;;;;;6.85;2.90;;;27.00;99.90;;;;;;4954631;28;20194;-70